createdAt,value
2019-03-24T00:02:22.004Z,10.30
2019-03-24T00:04:52.402Z,10.73
2019-03-24T00:07:22.651Z,10.70
2019-03-24T00:09:53.017Z,10.80
2019-03-24T00:12:23.326Z,11.30
2019-03-24T00:14:53.645Z,9.93
2019-03-24T00:17:23.975Z,11.73
2019-03-24T00:19:54.378Z,10.60
2019-03-24T00:22:24.769Z,10.83
2019-03-24T00:24:55.141Z,10.80
2019-03-24T00:27:25.509Z,10.43
2019-03-24T00:29:58.331Z,11.00
2019-03-24T00:32:28.687Z,10.40
2019-03-24T00:34:59.001Z,9.60
2019-03-24T00:37:29.332Z,9.77
2019-03-24T00:39:59.614Z,9.73
2019-03-24T00:42:29.998Z,9.97
2019-03-24T00:45:00.343Z,9.77
2019-03-24T00:47:30.670Z,9.40
2019-03-24T00:50:01.065Z,8.90
2019-03-24T00:52:31.415Z,9.53
2019-03-24T00:55:01.750Z,8.70
2019-03-24T00:57:32.062Z,9.30
2019-03-24T01:00:02.466Z,9.27
2019-03-24T01:02:32.837Z,9.23
2019-03-24T01:05:03.201Z,8.97
2019-03-24T01:07:33.600Z,8.70
2019-03-24T01:10:04.113Z,9.60
2019-03-24T01:12:34.368Z,9.03
2019-03-24T01:15:05.385Z,9.10
2019-03-24T01:17:35.652Z,8.83
2019-03-24T01:20:06.842Z,9.70
2019-03-24T01:22:37.193Z,9.67
2019-03-24T01:25:07.558Z,8.97
2019-03-24T01:27:37.829Z,9.00
2019-03-24T01:30:08.745Z,9.00
2019-03-24T01:32:39.115Z,8.60
2019-03-24T01:35:09.816Z,8.67
2019-03-24T01:37:40.153Z,8.20
2019-03-24T01:40:11.219Z,7.63
2019-03-24T01:42:41.477Z,7.53
2019-03-24T01:45:13.212Z,7.40
2019-03-24T01:47:43.534Z,7.47
2019-03-24T01:50:14.039Z,6.97
2019-03-24T01:52:44.362Z,7.40
2019-03-24T01:55:14.778Z,7.67
2019-03-24T01:57:45.171Z,7.13
2019-03-24T02:00:15.609Z,6.77
2019-03-24T02:02:46.002Z,7.00
2019-03-24T02:05:16.294Z,6.47
2019-03-24T02:07:46.617Z,6.40
2019-03-24T02:10:17.172Z,5.80
2019-03-24T02:12:47.548Z,6.40
2019-03-24T02:15:18.003Z,6.47
2019-03-24T02:17:48.278Z,6.27
2019-03-24T02:20:18.794Z,5.90
2019-03-24T02:22:49.249Z,6.33
2019-03-24T02:25:19.583Z,6.13
2019-03-24T02:27:49.835Z,6.17
2019-03-24T02:30:20.267Z,6.33
2019-03-24T02:32:50.608Z,6.20
2019-03-24T02:35:21.585Z,6.23
2019-03-24T02:37:51.928Z,6.13
2019-03-24T02:40:22.289Z,5.70
2019-03-24T02:42:52.591Z,6.23
2019-03-24T02:45:22.962Z,6.60
2019-03-24T02:47:53.227Z,6.73
2019-03-24T02:50:23.573Z,6.50
2019-03-24T02:52:53.935Z,6.10
2019-03-24T02:55:24.291Z,5.90
2019-03-24T02:57:54.643Z,5.40
2019-03-24T03:00:24.986Z,4.93
2019-03-24T03:02:55.338Z,5.23
2019-03-24T03:05:25.771Z,4.97
2019-03-24T03:07:56.025Z,4.50
2019-03-24T03:10:26.344Z,4.50
2019-03-24T03:12:56.926Z,4.10
2019-03-24T03:15:27.299Z,4.00
2019-03-24T03:17:57.607Z,3.70
2019-03-24T03:20:27.895Z,3.70
2019-03-24T03:22:58.276Z,3.50
2019-03-24T03:25:28.559Z,3.20
2019-03-24T03:27:59.204Z,3.33
2019-03-24T03:30:29.604Z,3.17
2019-03-24T03:32:59.823Z,3.20
2019-03-24T03:35:30.215Z,2.80
2019-03-24T03:38:00.495Z,3.60
2019-03-24T03:40:30.844Z,2.90
2019-03-24T03:43:01.223Z,3.03
2019-03-24T03:45:31.807Z,3.40
2019-03-24T03:48:02.062Z,3.40
2019-03-24T03:50:32.417Z,3.40
2019-03-24T03:53:02.788Z,3.03
2019-03-24T03:55:33.167Z,2.90
2019-03-24T03:58:03.578Z,3.13
2019-03-24T04:00:35.482Z,3.17
2019-03-24T04:03:06.756Z,3.07
2019-03-24T04:05:37.335Z,3.10
2019-03-24T04:08:07.791Z,2.97
2019-03-24T04:10:38.085Z,2.80
2019-03-24T04:13:08.439Z,3.03
2019-03-24T04:15:38.890Z,2.70
2019-03-24T04:18:09.193Z,2.50
2019-03-24T04:20:39.505Z,2.70
2019-03-24T04:23:09.869Z,2.77
2019-03-24T04:25:40.226Z,2.30
2019-03-24T04:28:10.559Z,2.60
2019-03-24T04:30:40.922Z,2.30
2019-03-24T04:33:11.353Z,2.40
2019-03-24T04:35:41.651Z,2.20
2019-03-24T04:38:11.954Z,2.33
2019-03-24T04:40:42.278Z,2.27
2019-03-24T04:43:12.581Z,2.00
2019-03-24T04:45:42.984Z,2.10
2019-03-24T04:48:13.354Z,2.27
2019-03-24T04:50:43.758Z,2.30
2019-03-24T04:53:14.061Z,2.10
2019-03-24T04:55:44.398Z,2.20
2019-03-24T04:58:14.725Z,2.10
2019-03-24T05:00:44.990Z,2.40
2019-03-24T05:03:15.284Z,2.10
2019-03-24T05:05:46.471Z,2.13
2019-03-24T05:08:17.444Z,2.10
2019-03-24T05:10:47.760Z,1.87
2019-03-24T05:13:18.051Z,2.03
2019-03-24T05:15:48.375Z,2.00
2019-03-24T05:18:18.781Z,1.73
2019-03-24T05:20:49.106Z,1.90
2019-03-24T05:23:19.443Z,1.70
2019-03-24T05:25:49.717Z,1.77
2019-03-24T05:28:20.162Z,2.00
2019-03-24T05:30:50.475Z,1.80
2019-03-24T05:33:20.809Z,1.87
2019-03-24T05:35:51.096Z,1.80
2019-03-24T05:38:21.413Z,1.83
2019-03-24T05:40:51.719Z,2.10
2019-03-24T05:43:22.025Z,2.00
2019-03-24T05:45:52.407Z,1.90
2019-03-24T05:48:22.774Z,1.90
2019-03-24T05:50:53.076Z,1.73
2019-03-24T05:53:23.412Z,2.07
2019-03-24T05:55:53.689Z,2.20
2019-03-24T05:58:24.054Z,2.00
2019-03-24T06:00:54.421Z,2.30
2019-03-24T06:03:24.745Z,2.07
2019-03-24T06:05:55.077Z,1.87
2019-03-24T06:08:25.410Z,2.50
2019-03-24T06:10:55.718Z,2.23
2019-03-24T06:13:26.093Z,2.10
2019-03-24T06:15:56.429Z,2.07
2019-03-24T06:18:26.699Z,1.90
2019-03-24T06:20:57.166Z,2.23
2019-03-24T06:23:27.531Z,2.47
2019-03-24T06:25:57.893Z,2.43
2019-03-24T06:28:28.305Z,2.60
2019-03-24T06:30:58.600Z,2.87
2019-03-24T06:33:28.930Z,2.40
2019-03-24T06:35:59.249Z,2.40
2019-03-24T06:38:29.662Z,3.00
2019-03-24T06:41:00.007Z,2.60
2019-03-24T06:43:30.387Z,2.90
2019-03-24T06:46:00.787Z,3.10
2019-03-24T06:48:31.139Z,2.60
2019-03-24T06:51:01.616Z,2.87
2019-03-24T06:53:31.934Z,2.70
2019-03-24T06:56:02.206Z,2.70
2019-03-24T06:58:32.614Z,2.90
2019-03-24T07:01:03.073Z,2.47
2019-03-24T07:03:33.440Z,2.60
2019-03-24T07:06:04.286Z,2.70
2019-03-24T07:08:34.706Z,2.47
2019-03-24T07:11:11.393Z,2.57
2019-03-24T07:13:37.009Z,2.20
2019-03-24T07:16:07.450Z,2.67
2019-03-24T07:18:37.763Z,2.33
2019-03-24T07:21:08.098Z,2.47
2019-03-24T07:23:38.483Z,2.40
2019-03-24T07:26:08.994Z,2.50
2019-03-24T07:28:39.303Z,2.07
2019-03-24T07:31:09.666Z,2.50
2019-03-24T07:33:39.966Z,1.77
2019-03-24T07:36:10.366Z,2.00
2019-03-24T07:38:40.740Z,2.23
2019-03-24T07:41:11.053Z,2.00
2019-03-24T07:43:41.394Z,1.93
2019-03-24T07:46:11.739Z,2.23
2019-03-24T07:48:42.106Z,1.70
2019-03-24T07:51:12.425Z,1.63
2019-03-24T07:53:42.798Z,2.00
2019-03-24T07:56:13.106Z,1.87
2019-03-24T07:58:45.770Z,1.90
2019-03-24T08:01:15.474Z,2.30
2019-03-24T08:03:45.859Z,1.90
2019-03-24T08:06:16.207Z,2.07
2019-03-24T08:08:46.668Z,2.10
2019-03-24T08:11:16.958Z,1.90
2019-03-24T08:13:53.775Z,2.07
2019-03-24T08:16:19.405Z,2.10
2019-03-24T08:18:49.704Z,1.90
2019-03-24T08:21:20.071Z,1.90
2019-03-24T08:23:50.382Z,1.80
2019-03-24T08:26:20.749Z,2.23
2019-03-24T08:28:51.105Z,1.93
2019-03-24T08:31:21.463Z,2.17
2019-03-24T08:33:51.874Z,2.47
2019-03-24T08:36:21.290Z,2.70
2019-03-24T08:38:51.901Z,2.37
2019-03-24T08:41:22.316Z,2.60
2019-03-24T08:43:52.636Z,2.90
2019-03-24T08:46:22.937Z,2.80
2019-03-24T08:48:53.182Z,2.70
2019-03-24T08:51:23.576Z,3.00
2019-03-24T08:53:53.918Z,2.73
2019-03-24T08:56:24.416Z,2.80
2019-03-24T08:58:54.726Z,2.83
2019-03-24T09:01:25.109Z,2.60
2019-03-24T09:03:55.532Z,2.80
2019-03-24T09:06:25.903Z,3.33
2019-03-24T09:08:56.306Z,3.10
2019-03-24T09:11:31.299Z,3.50
2019-03-24T09:13:58.562Z,2.97
2019-03-24T09:16:28.909Z,3.20
2019-03-24T09:18:59.213Z,3.70
2019-03-24T09:21:29.514Z,3.40
2019-03-24T09:23:59.917Z,3.60
2019-03-24T09:26:30.343Z,3.63
2019-03-24T09:29:00.695Z,3.37
2019-03-24T09:31:30.968Z,3.83
2019-03-24T09:34:01.350Z,3.80
2019-03-24T09:36:31.662Z,3.80
2019-03-24T09:39:02.078Z,3.60
2019-03-24T09:41:32.355Z,3.43
2019-03-24T09:44:02.786Z,3.67
2019-03-24T09:46:33.135Z,3.87
2019-03-24T09:49:03.583Z,3.47
2019-03-24T09:51:33.863Z,3.80
2019-03-24T09:54:04.239Z,3.90
2019-03-24T09:56:34.622Z,3.43
2019-03-24T09:59:04.999Z,3.93
2019-03-24T10:01:35.291Z,4.03
2019-03-24T10:04:05.628Z,4.40
2019-03-24T10:06:36.065Z,3.83
2019-03-24T10:09:07.719Z,3.93
2019-03-24T10:11:38.100Z,3.80
2019-03-24T10:14:08.429Z,4.00
2019-03-24T10:16:38.874Z,3.83
2019-03-24T10:19:13.965Z,3.73
2019-03-24T10:21:41.276Z,3.90
2019-03-24T10:24:11.617Z,3.93
2019-03-24T10:26:41.941Z,4.10
2019-03-24T10:29:12.273Z,3.90
2019-03-24T10:31:42.736Z,3.80
2019-03-24T10:34:13.059Z,3.90
2019-03-24T10:36:43.355Z,3.87
2019-03-24T10:39:13.737Z,4.47
2019-03-24T10:41:46.868Z,3.80
2019-03-24T10:44:17.243Z,3.53
2019-03-24T10:46:47.591Z,3.93
2019-03-24T10:49:24.682Z,4.27
2019-03-24T10:51:49.885Z,4.30
2019-03-24T10:54:20.233Z,3.60
2019-03-24T10:56:50.644Z,3.80
2019-03-24T10:59:21.064Z,3.93
2019-03-24T11:01:51.350Z,4.07
2019-03-24T11:04:21.718Z,3.83
2019-03-24T11:06:52.203Z,3.20
2019-03-24T11:09:22.543Z,3.77
2019-03-24T11:11:52.928Z,3.10
2019-03-24T11:14:23.247Z,3.70
2019-03-24T11:16:53.615Z,3.57
2019-03-24T11:19:34.877Z,3.43
2019-03-24T11:21:56.153Z,3.60
2019-03-24T11:24:26.509Z,4.10
2019-03-24T11:26:56.802Z,4.20
2019-03-24T11:29:27.126Z,3.57
2019-03-24T11:31:57.526Z,4.10
2019-03-24T11:34:27.887Z,3.70
2019-03-24T11:36:58.276Z,4.10
2019-03-24T11:39:28.661Z,4.17
2019-03-24T11:41:58.932Z,4.13
2019-03-24T11:44:29.238Z,4.00
2019-03-24T11:47:00.570Z,4.17
2019-03-24T11:49:30.915Z,3.90
2019-03-24T11:52:01.302Z,3.87
2019-03-24T11:54:31.637Z,4.20
2019-03-24T11:57:02.137Z,4.03
2019-03-24T11:59:32.479Z,4.03
2019-03-24T12:02:02.804Z,3.90
2019-03-24T12:04:33.165Z,3.90
2019-03-24T12:07:03.506Z,4.17
2019-03-24T12:09:33.878Z,4.07
2019-03-24T12:12:04.283Z,3.80
2019-03-24T12:14:34.674Z,3.70
2019-03-24T12:17:04.987Z,3.70
2019-03-24T12:19:35.314Z,3.70
2019-03-24T12:22:05.616Z,3.77
2019-03-24T12:24:35.895Z,4.10
2019-03-24T12:27:06.248Z,3.83
2019-03-24T12:29:36.676Z,3.50
2019-03-24T12:32:07.006Z,3.60
2019-03-24T12:34:37.378Z,3.43
2019-03-24T12:37:07.766Z,3.50
2019-03-24T12:39:38.149Z,3.20
2019-03-24T12:42:08.478Z,3.57
2019-03-24T12:44:38.804Z,3.40
2019-03-24T12:47:09.122Z,3.27
2019-03-24T12:49:39.434Z,3.43
2019-03-24T12:52:09.858Z,3.50
2019-03-24T12:54:40.177Z,3.50
2019-03-24T12:57:10.521Z,3.20
2019-03-24T12:59:40.883Z,3.70
2019-03-24T13:02:11.295Z,3.37
2019-03-24T13:04:41.549Z,3.20
2019-03-24T13:07:11.991Z,3.53
2019-03-24T13:09:42.287Z,3.50
2019-03-24T13:12:12.697Z,3.23
2019-03-24T13:14:43.061Z,3.30
2019-03-24T13:17:13.407Z,5.57
2019-03-24T13:19:43.874Z,5.07
2019-03-24T13:22:14.329Z,5.77
2019-03-24T13:24:44.644Z,6.03
2019-03-24T13:27:15.057Z,5.33
2019-03-24T13:29:45.393Z,6.33
2019-03-24T13:32:15.755Z,6.30
2019-03-24T13:34:46.144Z,6.80
2019-03-24T13:37:16.503Z,7.10
2019-03-24T13:39:46.842Z,6.27
2019-03-24T13:42:17.210Z,6.40
2019-03-24T13:44:47.611Z,6.60
2019-03-24T13:47:18.028Z,7.80
2019-03-24T13:49:48.380Z,7.00
2019-03-24T13:52:18.746Z,6.30
2019-03-24T13:54:49.134Z,6.30
2019-03-24T13:57:19.454Z,6.60
2019-03-24T13:59:49.750Z,6.70
2019-03-24T14:02:20.139Z,6.87
2019-03-24T14:04:50.587Z,7.10
2019-03-24T14:07:20.972Z,7.73
2019-03-24T14:09:51.380Z,6.93
2019-03-24T14:12:21.737Z,7.30
2019-03-24T14:14:52.055Z,6.70
2019-03-24T14:17:22.428Z,6.83
2019-03-24T14:19:52.710Z,6.87
2019-03-24T14:22:23.034Z,6.50
2019-03-24T14:24:53.345Z,6.27
2019-03-24T14:27:23.706Z,7.10
2019-03-24T14:29:54.094Z,6.40
2019-03-24T14:32:24.385Z,6.70
2019-03-24T14:34:54.729Z,6.53
2019-03-24T14:37:25.181Z,7.43
2019-03-24T14:39:55.538Z,7.00
2019-03-24T14:42:25.898Z,6.33
2019-03-24T14:44:56.351Z,6.60
2019-03-24T14:47:26.691Z,7.23
2019-03-24T14:49:57.034Z,6.00
2019-03-24T14:52:27.462Z,5.87
2019-03-24T14:54:57.814Z,6.40
2019-03-24T14:57:28.182Z,6.07
2019-03-24T14:59:58.558Z,6.23
2019-03-24T15:02:28.852Z,6.20
2019-03-24T15:04:59.166Z,6.57
2019-03-24T15:07:29.503Z,6.10
2019-03-24T15:09:59.906Z,6.10
2019-03-24T15:12:30.357Z,6.13
2019-03-24T15:15:00.743Z,5.03
2019-03-24T15:17:31.055Z,5.20
2019-03-24T15:20:01.452Z,5.20
2019-03-24T15:22:31.760Z,5.43
2019-03-24T15:25:02.141Z,5.27
2019-03-24T15:27:32.467Z,5.20
2019-03-24T15:30:02.766Z,5.40
2019-03-24T15:32:33.125Z,5.50
2019-03-24T15:35:03.399Z,5.47
2019-03-24T15:37:33.860Z,5.33
2019-03-24T15:40:04.720Z,4.70
2019-03-24T15:42:35.262Z,5.40
2019-03-24T15:45:05.661Z,5.60
2019-03-24T15:47:36.467Z,5.50
2019-03-24T15:50:07.570Z,5.20
2019-03-24T15:52:37.930Z,5.10
2019-03-24T15:55:09.221Z,5.07
2019-03-24T15:57:39.597Z,5.07
2019-03-24T16:00:11.290Z,5.60
2019-03-24T16:02:41.644Z,4.70
2019-03-24T16:05:11.958Z,4.20
2019-03-24T16:07:42.236Z,6.00
2019-03-24T16:10:13.069Z,4.70
2019-03-24T16:12:43.478Z,4.87
2019-03-24T16:15:14.075Z,4.80
2019-03-24T16:17:44.443Z,4.40
2019-03-24T16:20:14.882Z,4.47
2019-03-24T16:22:45.156Z,4.30
2019-03-24T16:25:15.482Z,4.27
2019-03-24T16:27:45.802Z,4.50
2019-03-24T16:30:16.280Z,4.20
2019-03-24T16:32:46.615Z,3.90
2019-03-24T16:35:16.962Z,4.23
2019-03-24T16:37:47.332Z,3.73
2019-03-24T16:40:17.703Z,4.10
2019-03-24T16:42:48.036Z,4.50
2019-03-24T16:45:18.427Z,4.23
2019-03-24T16:47:48.761Z,5.03
2019-03-24T16:50:19.065Z,4.83
2019-03-24T16:52:49.430Z,5.57
2019-03-24T16:55:19.781Z,5.53
2019-03-24T16:57:50.127Z,6.53
2019-03-24T17:00:20.595Z,6.23
2019-03-24T17:02:50.905Z,8.13
2019-03-24T17:05:21.246Z,8.27
2019-03-24T17:07:51.561Z,7.17
2019-03-24T17:10:21.892Z,6.80
2019-03-24T17:12:52.250Z,5.83
2019-03-24T17:15:22.746Z,5.57
2019-03-24T17:17:53.416Z,5.70
2019-03-24T17:20:23.716Z,4.67
2019-03-24T17:22:54.051Z,5.30
2019-03-24T17:25:24.462Z,5.27
2019-03-24T17:27:54.794Z,5.50
2019-03-24T17:30:25.171Z,6.13
2019-03-24T17:32:55.494Z,6.97
2019-03-24T17:35:25.863Z,8.30
2019-03-24T17:37:56.146Z,7.63
2019-03-24T17:40:26.422Z,8.20
2019-03-24T17:42:56.748Z,8.13
2019-03-24T17:45:27.101Z,8.40
2019-03-24T17:47:57.581Z,8.20
2019-03-24T17:50:28.001Z,8.73
2019-03-24T17:52:58.365Z,8.50
2019-03-24T17:55:30.986Z,8.87
2019-03-24T17:58:02.010Z,9.07
2019-03-24T18:00:40.805Z,9.33
2019-03-24T18:03:11.621Z,9.73
2019-03-24T18:05:42.106Z,10.10
2019-03-24T18:08:13.423Z,10.13
2019-03-24T18:10:44.655Z,10.93
2019-03-24T18:13:15.814Z,11.07
2019-03-24T18:15:46.960Z,11.80
2019-03-24T18:18:17.306Z,11.47
2019-03-24T18:20:47.685Z,11.77
2019-03-24T18:23:18.076Z,11.60
2019-03-24T18:25:48.460Z,11.30
2019-03-24T18:28:18.840Z,12.30
2019-03-24T18:30:49.146Z,13.43
2019-03-24T18:33:19.540Z,12.27
2019-03-24T18:35:50.495Z,11.93
2019-03-24T18:38:20.886Z,10.77
2019-03-24T18:40:51.218Z,11.40
2019-03-24T18:43:21.802Z,11.70
2019-03-24T18:45:52.643Z,11.30
2019-03-24T18:48:23.552Z,11.47
2019-03-24T18:50:54.414Z,10.93
2019-03-24T18:53:24.815Z,11.00
2019-03-24T18:55:55.247Z,11.10
2019-03-24T18:58:25.585Z,10.90
2019-03-24T19:00:57.718Z,12.33
2019-03-24T19:03:28.451Z,12.63
2019-03-24T19:05:58.856Z,12.27
2019-03-24T19:08:29.238Z,13.00
2019-03-24T19:10:59.634Z,11.93
2019-03-24T19:13:29.948Z,12.43
2019-03-24T19:16:00.583Z,12.13
2019-03-24T19:18:30.909Z,12.37
2019-03-24T19:21:01.314Z,14.73
2019-03-24T19:23:31.606Z,14.70
2019-03-24T19:26:01.974Z,14.47
2019-03-24T19:28:32.293Z,13.20
2019-03-24T19:31:02.988Z,13.17
2019-03-24T19:33:33.525Z,33.33
2019-03-24T19:36:03.945Z,14.67
2019-03-24T19:38:34.378Z,13.07
2019-03-24T19:41:05.942Z,13.27
2019-03-24T19:43:39.744Z,13.20
2019-03-24T19:46:11.376Z,13.60
2019-03-24T19:48:41.717Z,14.20
2019-03-24T19:51:12.028Z,13.60
2019-03-24T19:53:42.372Z,14.67
2019-03-24T19:56:12.714Z,13.70
2019-03-24T19:58:43.143Z,14.27
2019-03-24T20:01:13.594Z,13.87
2019-03-24T20:03:44.025Z,13.20
2019-03-24T20:06:14.512Z,13.77
2019-03-24T20:08:44.833Z,13.93
2019-03-24T20:11:15.188Z,14.73
2019-03-24T20:13:45.550Z,14.13
2019-03-24T20:16:15.986Z,13.63
2019-03-24T20:18:46.326Z,14.60
2019-03-24T20:21:16.619Z,14.97
2019-03-24T20:23:46.985Z,13.57
2019-03-24T20:26:17.365Z,15.13
2019-03-24T20:28:47.619Z,15.03
2019-03-24T20:31:18.077Z,15.27
2019-03-24T20:33:48.406Z,16.20
2019-03-24T20:36:18.794Z,15.00
2019-03-24T20:38:49.208Z,15.87
2019-03-24T20:41:19.514Z,15.20
2019-03-24T20:43:49.854Z,16.33
2019-03-24T20:46:20.198Z,16.03
2019-03-24T20:48:50.602Z,15.83
2019-03-24T20:51:21.012Z,16.27
2019-03-24T20:53:51.609Z,15.33
2019-03-24T20:56:21.950Z,16.60
2019-03-24T20:58:53.116Z,15.83
2019-03-24T21:01:23.459Z,15.30
2019-03-24T21:03:54.835Z,16.70
2019-03-24T21:06:25.181Z,16.43
2019-03-24T21:08:55.542Z,16.73
2019-03-24T21:11:25.983Z,16.27
2019-03-24T21:13:56.374Z,15.93
2019-03-24T21:16:26.735Z,17.17
2019-03-24T21:18:57.046Z,16.70
2019-03-24T21:21:27.393Z,17.20
2019-03-24T21:23:57.803Z,16.50
2019-03-24T21:26:28.106Z,16.97
2019-03-24T21:28:58.572Z,16.40
2019-03-24T21:31:28.997Z,15.93
2019-03-24T21:33:59.428Z,16.30
2019-03-24T21:36:29.783Z,17.33
2019-03-24T21:39:00.114Z,16.83
2019-03-24T21:41:30.500Z,16.73
2019-03-24T21:44:00.821Z,17.77
2019-03-24T21:46:31.189Z,17.60
2019-03-24T21:49:01.509Z,16.97
2019-03-24T21:51:31.871Z,16.87
2019-03-24T21:54:02.281Z,17.00
2019-03-24T21:56:32.626Z,16.87
2019-03-24T21:59:02.932Z,16.87
2019-03-24T22:01:33.366Z,17.17
2019-03-24T22:04:03.635Z,17.90
2019-03-24T22:06:34.101Z,18.00
2019-03-24T22:09:05.039Z,17.73
2019-03-24T22:11:35.446Z,17.37
2019-03-24T22:14:06.098Z,17.93
2019-03-24T22:16:36.483Z,17.93
2019-03-24T22:19:06.842Z,18.20
2019-03-24T22:21:37.173Z,17.60
2019-03-24T22:24:07.574Z,18.10
2019-03-24T22:26:37.891Z,18.90
2019-03-24T22:29:08.229Z,18.77
2019-03-24T22:31:38.583Z,18.70
2019-03-24T22:34:08.934Z,20.50
2019-03-24T22:36:39.296Z,20.23
2019-03-24T22:39:10.047Z,20.23
2019-03-24T22:41:40.339Z,19.97
2019-03-24T22:44:11.254Z,18.77
2019-03-24T22:46:41.543Z,19.27
2019-03-24T22:49:11.979Z,19.67
2019-03-24T22:51:42.335Z,20.53
2019-03-24T22:54:12.646Z,20.43
2019-03-24T22:56:43.066Z,21.23
2019-03-24T22:59:13.374Z,19.70
2019-03-24T23:01:43.750Z,21.23
2019-03-24T23:04:13.982Z,21.33
2019-03-24T23:06:44.470Z,20.87
2019-03-24T23:09:15.005Z,21.20
2019-03-24T23:11:45.389Z,20.93
2019-03-24T23:14:15.791Z,20.53
2019-03-24T23:16:46.210Z,20.97
2019-03-24T23:19:16.594Z,21.00
2019-03-24T23:21:46.973Z,21.27
2019-03-24T23:24:17.297Z,21.40
2019-03-24T23:26:47.663Z,21.10
2019-03-24T23:29:17.990Z,22.33
2019-03-24T23:31:48.330Z,21.40
2019-03-24T23:34:18.697Z,21.83
2019-03-24T23:36:49.069Z,20.87
2019-03-24T23:39:19.394Z,22.10
2019-03-24T23:41:49.772Z,21.67
2019-03-24T23:44:20.134Z,21.87
2019-03-24T23:46:50.367Z,20.60
2019-03-24T23:49:20.702Z,21.50
2019-03-24T23:51:50.994Z,21.47
2019-03-24T23:54:26.970Z,22.87
2019-03-24T23:56:53.418Z,22.80
2019-03-24T23:59:23.773Z,22.57
